Map

Track Data

SID SEASON NUMBER BASIN SUBBASIN NAME ISO_TIME NATURE LAT LON WMO_WIND WMO_PRES WMO_AGENCY TRACK_TYPE DIST2LAND LANDFALL IFLAG USA_AGENCY USA_ATCF_ID USA_LAT USA_LON USA_RECORD USA_STATUS USA_WIND USA_PRES USA_SSHS USA_R34_NE USA_R34_SE USA_R34_SW USA_R34_NW USA_R50_NE USA_R50_SE USA_R50_SW USA_R50_NW USA_R64_NE USA_R64_SE USA_R64_SW USA_R64_NW USA_POCI USA_ROCI USA_RMW USA_EYE TOKYO_LAT TOKYO_LON TOKYO_GRADE TOKYO_WIND TOKYO_PRES TOKYO_R50_DIR TOKYO_R50_LONG TOKYO_R50_SHORT TOKYO_R30_DIR TOKYO_R30_LONG TOKYO_R30_SHORT TOKYO_LAND CMA_LAT CMA_LON CMA_CAT CMA_WIND CMA_PRES HKO_LAT HKO_LON HKO_CAT HKO_WIND HKO_PRES NEWDELHI_LAT NEWDELHI_LON NEWDELHI_GRADE NEWDELHI_WIND NEWDELHI_PRES NEWDELHI_CI NEWDELHI_DP NEWDELHI_POCI REUNION_LAT REUNION_LON REUNION_TYPE REUNION_WIND REUNION_PRES REUNION_TNUM REUNION_CI REUNION_RMW REUNION_R34_NE REUNION_R34_SE REUNION_R34_SW REUNION_R34_NW REUNION_R50_NE REUNION_R50_SE REUNION_R50_SW REUNION_R50_NW REUNION_R64_NE REUNION_R64_SE REUNION_R64_SW REUNION_R64_NW BOM_LAT BOM_LON BOM_TYPE BOM_WIND BOM_PRES BOM_TNUM BOM_CI BOM_RMW BOM_R34_NE BOM_R34_SE BOM_R34_SW BOM_R34_NW BOM_R50_NE BOM_R50_SE BOM_R50_SW BOM_R50_NW BOM_R64_NE BOM_R64_SE BOM_R64_SW BOM_R64_NW BOM_ROCI BOM_POCI BOM_EYE BOM_POS_METHOD BOM_PRES_METHOD NADI_LAT NADI_LON NADI_CAT NADI_WIND NADI_PRES WELLINGTON_LAT WELLINGTON_LON WELLINGTON_WIND WELLINGTON_PRES DS824_LAT DS824_LON DS824_STAGE DS824_WIND DS824_PRES TD9636_LAT TD9636_LON TD9636_STAGE TD9636_WIND TD9636_PRES TD9635_LAT TD9635_LON TD9635_WIND TD9635_PRES TD9635_ROCI NEUMANN_LAT NEUMANN_LON NEUMANN_CLASS NEUMANN_WIND NEUMANN_PRES MLC_LAT MLC_LON MLC_CLASS MLC_WIND MLC_PRES USA_GUST BOM_GUST BOM_GUST_PER REUNION_GUST REUNION_GUST_PER USA_SEAHGT USA_SEARAD_NE USA_SEARAD_SE USA_SEARAD_SW USA_SEARAD_NW STORM_SPEED STORM_DIR
1908365N08083 1908 56 NI BB NOT_NAMED 1908-12-30 00:00:00 TS 7.80000 82.8000 main 112 94 _________O____ -1 7.80000 82.8000 TC 34 4 297
1908365N08083 1908 56 NI BB NOT_NAMED 1908-12-30 03:00:00 TS 7.90169 82.6034 main 94 71 _________PO___ -1 7.95253 82.5050 TC 36 7.80000 82.8000 2 5 296
1908365N08083 1908 56 NI BB NOT_NAMED 1908-12-30 06:00:00 TS 8.03697 82.3101 main 71 49 _________OP___ -1 8.10000 82.2000 TC 39 7.94243 82.4752 2 7 295
1908365N08083 1908 56 NI BB NOT_NAMED 1908-12-30 09:00:00 TS 8.17620 82.0029 main 49 31 _________PP___ -1 8.24251 81.8850 TC 42 8.08778 82.1602 2 6 296
1908365N08083 1908 56 NI BB NOT_NAMED 1908-12-30 12:00:00 TS 8.31962 81.7326 main 31 15 _________OP___ -1 8.40000 81.6000 TC 45 8.23923 81.8651 2 6 303
1908365N08083 1908 56 NI BB NOT_NAMED 1908-12-30 15:00:00 TS 8.49998 81.4925 main 15 10 _________PO___ -1 8.59996 81.3850 TC 45 8.40000 81.6000 3 6 310
1908365N08083 1908 56 NI BB NOT_NAMED 1908-12-30 18:00:00 TS 8.68588 81.2856 main 10 0 _________OP___ -1 8.80000 81.2000 TC 45 8.57175 81.3712 3 5 311
1908365N08083 1908 56 NI BB NOT_NAMED 1908-12-30 21:00:00 TS 8.85367 81.0849 main 10 0 _________PP___ -1 8.95749 81.0000 TC 45 8.74985 81.1699 3 5 310
1908365N08083 1908 56 NI BB NOT_NAMED 1908-12-31 00:00:00 TS 9.01401 80.8918 main 0 0 _________OP___ -1 9.10000 80.8000 TC 45 8.92802 80.9837 3 5 310
1908365N08083 1908 56 NI BB NOT_NAMED 1908-12-31 03:00:00 TS 9.17500 80.7000 main 0 0 _________PO___ -1 9.24999 80.6000 TC 45 9.10000 80.8000 3 5 309
1908365N08083 1908 56 NI BB NOT_NAMED 1908-12-31 06:00:00 TS 9.33062 80.4980 main 0 0 _________OP___ -1 9.40000 80.4000 TC 45 9.26123 80.5959 3 5 307
1908365N08083 1908 56 NI BB NOT_NAMED 1908-12-31 09:00:00 TS 9.48249 80.2925 main 0 0 _________PP___ -1 9.55000 80.1925 TC 45 9.41498 80.3925 3 5 307
1908365N08083 1908 56 NI BB NOT_NAMED 1908-12-31 12:00:00 TS 9.63062 80.0964 main 11 0 _________OP___ -1 9.70000 80.0000 TC 45 9.56123 80.1928 3 5 309
1908365N08083 1908 56 NI BB NOT_NAMED 1908-12-31 15:00:00 TS 9.77873 79.9250 main 24 24 _________PO___ -1 9.85747 79.8500 TC 45 9.70000 80.0000 3 4 315
1908365N08083 1908 56 NI BB NOT_NAMED 1908-12-31 18:00:00 TS 9.91777 79.8054 main 39 33 _________OP___ -1 10.0000 79.7000 TC 45 9.83554 79.9109 3 3 318
1908365N08083 1908 56 NI BB NOT_NAMED 1908-12-31 21:00:00 TS 10.0280 79.6984 main 35 24 _________PP___ -1 10.0922 79.5823 TC 45 9.96377 79.8144 3 4 304
1908365N08083 1908 56 NI BB NOT_NAMED 1909-01-01 00:00:00 TS 10.1426 79.4679 main 24 0 _________OP___ -1 10.2000 79.3000 TC 45 10.0852 79.6358 3 7 292
1908365N08083 1908 56 NI BB NOT_NAMED 1909-01-01 03:00:00 TS 10.3076 78.9951 main 0 0 _________PO___ -1 10.4151 78.6903 TC 45 10.2000 79.3000 3 12 286
1908365N08083 1908 56 NI BB NOT_NAMED 1909-01-01 06:00:00 TS 10.4642 78.3058 main 0 0 _________OP___ -1 10.6000 77.9000 TC 45 10.3283 78.7116 3 15 279
1908365N08083 1908 56 NI AS NOT_NAMED 1909-01-01 09:00:00 TS 10.5381 77.5363 main 0 0 _________PP___ -1 10.6300 77.1073 TC 45 10.4462 77.9654 3 16 274
1908365N08083 1908 56 NI AS NOT_NAMED 1909-01-01 12:00:00 TS 10.5704 76.7182 main 0 0 _________OP___ -1 10.6000 76.3000 TC 45 10.5407 77.1365 3 16 272
1908365N08083 1908 56 NI AS NOT_NAMED 1909-01-01 15:00:00 TS 10.6037 75.9175 main 15 15 _________PO___ -1 10.6073 75.5351 TC 45 10.6000 76.3000 3 15 272
1908365N08083 1908 56 NI AS NOT_NAMED 1909-01-01 18:00:00 TS 10.6093 75.2090 main 79 79 _________OP___ -1 10.6000 74.8000 TC 45 10.6164 75.5158 3 14 269
1908365N08083 1908 56 NI AS NOT_NAMED 1909-01-01 21:00:00 TS 10.5827 74.5063 main 154 154 _________PP___ -1 10.5603 74.0924 TC 45 10.5976 74.7823 3 13 267
1908365N08083 1908 56 NI AS NOT_NAMED 1909-01-02 00:00:00 TS 10.5367 73.8551 main 216 216 _________OP___ -1 10.5000 73.4000 TC 45 10.5551 74.0826 3 11 266
1908365N08083 1908 56 NI AS NOT_NAMED 1909-01-02 03:00:00 NR 10.5000 73.4000 main 258 __________O___ -1 TC 10.5000 73.4000 3 9 265

About IBTrACS Database

This database is a web-friendly format of International Best Track Archive for Climate Stewardship (IBTrACS), a global best track data archive curated by NOAA dating back to 1842.

Updated: 2021-10-19